OOCL Hamburg — VRZK9 — position and weather

sailwx.info

Track history (hours):
 
Tides and Currents Weather Stations Pressure Air Temp Water Temp Dewpoint Dewpoint Depression Visibility Wind Speed Wind Dir Waves Ship Positions

OOCL Hamburg

Last reported at 2015-Jul-25 20:18 UTC. Time now 2015-Jul-29 00:37 UTC.
Position N 22°05' E 114°15'.

Length 323 m; beam 42.8 m; draft 14.5 m.

Type: Cargo ship. MMSI: 477702000.

Date/timePositionNaut miles runAvg speedWind from/ knotsBaromVisibWave heightAir tempDewpointWater temp
2015-Jul-25 20:18N 22°05' E 114°15'0 0.0
2015-Jul-25 19:12N 22°05' E 114°15'0 0.0
2015-Jul-25 04:16N 22°05' E 114°14'14 7.9
2015-Jul-25 02:32N 22°16' E 114°06'5 4.7
2015-Jul-25 01:33N 22°21' E 114°07'0 0.0
2015-Jul-25 00:33N 22°21' E 114°07'0 0.0
2015-Jul-24 23:28N 22°21' E 114°07'0 0.0
2015-Jul-24 22:31N 22°21' E 114°07'0 0.0
2015-Jul-24 21:31N 22°21' E 114°07'0 0.0
2015-Jul-24 20:25N 22°21' E 114°07'0 0.0
2015-Jul-24 19:28N 22°21' E 114°07'0 0.0
2015-Jul-24 18:31N 22°21' E 114°07'0 0.0
2015-Jul-24 17:28N 22°21' E 114°07'0 0.0
2015-Jul-24 14:22N 22°21' E 114°07'0 0.0
2015-Jul-24 13:28N 22°21' E 114°07'0 0.0
2015-Jul-24 12:28N 22°21' E 114°07'0 0.0
2015-Jul-24 10:07N 22°21' E 114°07'0 0.0
2015-Jul-24 09:31N 22°21' E 114°07'0 0.0
2015-Jul-24 08:28N 22°21' E 114°07'0 0.0
2015-Jul-24 07:31N 22°21' E 114°07'2 2.5
2015-Jul-24 06:33N 22°19' E 114°06'1110.6
2015-Jul-24 05:30N 22°10' E 114°13'1112.2
2015-Jul-24 04:33N 22°05' E 114°24'  
2015-Jul-19 10:12N 01°16' E 104°13'1116.5
2015-Jul-19 09:33N 01°15' E 104°03'1111.4
2015-Jul-19 08:33N 01°15' E 103°51'1 0.8
2015-Jul-19 07:28N 01°16' E 103°51'0 0.0
2015-Jul-19 06:31N 01°16' E 103°51'0 0.0
2015-Jul-19 05:31N 01°16' E 103°51'0 0.0
2015-Jul-19 04:31N 01°16' E 103°51'0 0.0
2015-Jul-19 00:31N 01°16' E 103°51'0 0.0
2015-Jul-18 23:31N 01°16' E 103°51'0 0.0
2015-Jul-18 22:31N 01°16' E 103°51'0 0.0
2015-Jul-18 21:31N 01°16' E 103°51'0 0.0
2015-Jul-18 20:31N 01°16' E 103°51'0 0.0
2015-Jul-18 19:31N 01°16' E 103°51'0 0.0
2015-Jul-18 18:31N 01°16' E 103°51'0 0.0
2015-Jul-18 17:22N 01°16' E 103°51'0 0.0
2015-Jul-18 16:28N 01°16' E 103°51'0 0.0
2015-Jul-18 15:28N 01°16' E 103°51'0 0.0
2015-Jul-18 14:31N 01°16' E 103°51'0 0.0
2015-Jul-18 13:31N 01°16' E 103°51'0 0.0
2015-Jul-18 12:31N 01°16' E 103°51'0 0.0
2015-Jul-18 11:31N 01°16' E 103°51'0 0.0
2015-Jul-18 10:28N 01°16' E 103°51'0 0.0
2015-Jul-18 09:33N 01°16' E 103°51'0 0.0
2015-Jul-18 08:33N 01°16' E 103°51'0 0.3
2015-Jul-18 07:33N 01°16' E 103°51'4 4.3
2015-Jul-18 06:31N 01°11' E 103°50'14111.4
2015-Jul-17 18:07N 02°18' E 101°46'1811.9
2015-Jul-17 16:33N 02°29' E 101°31'2512.5
2015-Jul-17 14:33N 02°43' E 101°10'1313.1
2015-Jul-17 13:33N 02°49' E 100°59'1413.8
2015-Jul-17 12:33N 02°58' E 100°48'5016.5
2015-Jul-17 09:33N 03°30' E 100°10'  
Track history (hours):
 
Tides and Currents Weather Stations Pressure Air Temp Water Temp Dewpoint Dewpoint Depression Visibility Wind Speed Wind Dir Waves Ship Positions

OOCL Hamburg

Last reported at 2015-Jul-25 20:18 UTC. Time now 2015-Jul-29 00:37 UTC.
Position N 22°05' E 114°15'.

Length 323 m; beam 42.8 m; draft 14.5 m.

Type: Cargo ship. MMSI: 477702000.

Date/timePositionNaut miles runAvg speedWind from/ knotsBaromVisibWave heightAir tempDewpointWater temp
2015-Jul-25 20:18N 22°05' E 114°15'0 0.0
2015-Jul-25 19:12N 22°05' E 114°15'0 0.0
2015-Jul-25 04:16N 22°05' E 114°14'14 7.9
2015-Jul-25 02:32N 22°16' E 114°06'5 4.7
2015-Jul-25 01:33N 22°21' E 114°07'0 0.0
2015-Jul-25 00:33N 22°21' E 114°07'0 0.0
2015-Jul-24 23:28N 22°21' E 114°07'0 0.0
2015-Jul-24 22:31N 22°21' E 114°07'0 0.0
2015-Jul-24 21:31N 22°21' E 114°07'0 0.0
2015-Jul-24 20:25N 22°21' E 114°07'0 0.0
2015-Jul-24 19:28N 22°21' E 114°07'0 0.0
2015-Jul-24 18:31N 22°21' E 114°07'0 0.0
2015-Jul-24 17:28N 22°21' E 114°07'0 0.0
2015-Jul-24 14:22N 22°21' E 114°07'0 0.0
2015-Jul-24 13:28N 22°21' E 114°07'0 0.0
2015-Jul-24 12:28N 22°21' E 114°07'0 0.0
2015-Jul-24 10:07N 22°21' E 114°07'0 0.0
2015-Jul-24 09:31N 22°21' E 114°07'0 0.0
2015-Jul-24 08:28N 22°21' E 114°07'0 0.0
2015-Jul-24 07:31N 22°21' E 114°07'2 2.5
2015-Jul-24 06:33N 22°19' E 114°06'1110.6
2015-Jul-24 05:30N 22°10' E 114°13'1112.2
2015-Jul-24 04:33N 22°05' E 114°24'  
2015-Jul-19 10:12N 01°16' E 104°13'1116.5
2015-Jul-19 09:33N 01°15' E 104°03'1111.4
2015-Jul-19 08:33N 01°15' E 103°51'1 0.8
2015-Jul-19 07:28N 01°16' E 103°51'0 0.0
2015-Jul-19 06:31N 01°16' E 103°51'0 0.0
2015-Jul-19 05:31N 01°16' E 103°51'0 0.0
2015-Jul-19 04:31N 01°16' E 103°51'0 0.0
2015-Jul-19 00:31N 01°16' E 103°51'0 0.0
2015-Jul-18 23:31N 01°16' E 103°51'0 0.0
2015-Jul-18 22:31N 01°16' E 103°51'0 0.0
2015-Jul-18 21:31N 01°16' E 103°51'0 0.0
2015-Jul-18 20:31N 01°16' E 103°51'0 0.0
2015-Jul-18 19:31N 01°16' E 103°51'0 0.0
2015-Jul-18 18:31N 01°16' E 103°51'0 0.0
2015-Jul-18 17:22N 01°16' E 103°51'0 0.0
2015-Jul-18 16:28N 01°16' E 103°51'0 0.0
2015-Jul-18 15:28N 01°16' E 103°51'0 0.0
2015-Jul-18 14:31N 01°16' E 103°51'0 0.0
2015-Jul-18 13:31N 01°16' E 103°51'0 0.0
2015-Jul-18 12:31N 01°16' E 103°51'0 0.0
2015-Jul-18 11:31N 01°16' E 103°51'0 0.0
2015-Jul-18 10:28N 01°16' E 103°51'0 0.0
2015-Jul-18 09:33N 01°16' E 103°51'0 0.0
2015-Jul-18 08:33N 01°16' E 103°51'0 0.3
2015-Jul-18 07:33N 01°16' E 103°51'4 4.3
2015-Jul-18 06:31N 01°11' E 103°50'14111.4
2015-Jul-17 18:07N 02°18' E 101°46'1811.9
2015-Jul-17 16:33N 02°29' E 101°31'2512.5
2015-Jul-17 14:33N 02°43' E 101°10'1313.1
2015-Jul-17 13:33N 02°49' E 100°59'1413.8
2015-Jul-17 12:33N 02°58' E 100°48'5016.5
2015-Jul-17 09:33N 03°30' E 100°10'  

Dump ship's entire track history